createdAt,value
2022-11-16T00:02:09.405Z,8.90
2022-11-16T00:04:38.864Z,8.80
2022-11-16T00:07:07.395Z,8.80
2022-11-16T00:09:35.739Z,8.80
2022-11-16T00:12:05.767Z,8.80
2022-11-16T00:14:35.368Z,8.80
2022-11-16T00:17:04.538Z,8.80
2022-11-16T00:19:32.765Z,8.80
2022-11-16T00:22:02.060Z,8.80
2022-11-16T00:24:30.028Z,8.70
2022-11-16T00:26:57.912Z,8.70
2022-11-16T00:29:27.817Z,8.70
2022-11-16T00:31:56.161Z,8.70
2022-11-16T00:34:24.779Z,8.70
2022-11-16T00:36:53.016Z,8.80
2022-11-16T00:39:22.548Z,8.80
2022-11-16T00:41:50.692Z,8.80
2022-11-16T00:44:18.958Z,8.80
2022-11-16T00:46:46.880Z,8.70
2022-11-16T00:49:15.045Z,8.80
2022-11-16T00:51:43.229Z,8.80
2022-11-16T00:54:12.259Z,8.70
2022-11-16T00:56:42.122Z,8.70
2022-11-16T00:59:10.109Z,8.70
2022-11-16T01:01:38.269Z,8.70
2022-11-16T01:04:07.568Z,8.70
2022-11-16T01:06:37.252Z,8.70
2022-11-16T01:09:05.519Z,8.70
2022-11-16T01:11:50.771Z,8.70
2022-11-16T01:14:20.360Z,8.60
2022-11-16T01:16:50.416Z,8.60
2022-11-16T01:19:18.754Z,8.60
2022-11-16T01:21:46.730Z,8.60
2022-11-16T01:24:14.933Z,8.60
2022-11-16T01:26:42.821Z,8.60
2022-11-16T01:29:10.776Z,8.50
2022-11-16T01:31:44.665Z,8.50
2022-11-16T01:34:12.593Z,8.50
2022-11-16T01:36:40.570Z,8.50
2022-11-16T01:39:08.719Z,8.50
2022-11-16T01:41:46.437Z,8.50
2022-11-16T01:44:58.427Z,8.50
2022-11-16T01:47:28.205Z,8.50
2022-11-16T01:50:03.898Z,8.40
2022-11-16T01:52:36.843Z,8.40
2022-11-16T01:55:05.898Z,8.40
2022-11-16T01:58:04.415Z,8.40
2022-11-16T02:00:34.025Z,8.40
2022-11-16T02:03:22.010Z,8.40
2022-11-16T02:06:11.929Z,8.40
2022-11-16T02:09:12.474Z,8.40
2022-11-16T02:12:03.770Z,8.40
2022-11-16T02:14:44.324Z,8.30
2022-11-16T02:17:25.617Z,8.30
2022-11-16T02:20:44.938Z,8.40
2022-11-16T02:23:39.117Z,8.40
2022-11-16T02:26:31.745Z,8.40
2022-11-16T02:29:17.257Z,8.40
2022-11-16T02:31:51.615Z,8.40
2022-11-16T02:34:22.250Z,8.40
2022-11-16T02:36:53.301Z,8.40
2022-11-16T02:39:27.024Z,8.40
2022-11-16T02:41:56.972Z,8.40
2022-11-16T02:44:32.597Z,8.40
2022-11-16T02:47:05.014Z,8.40
2022-11-16T02:49:36.849Z,8.40
2022-11-16T02:52:05.857Z,8.40
2022-11-16T02:54:33.880Z,8.40
2022-11-16T02:57:40.888Z,8.40
2022-11-16T03:00:19.916Z,8.40
2022-11-16T03:02:55.060Z,8.40
2022-11-16T03:05:32.039Z,8.40
2022-11-16T03:08:10.538Z,8.40
2022-11-16T03:11:02.272Z,8.40
2022-11-16T03:13:34.906Z,8.50
2022-11-16T03:16:10.907Z,8.50
2022-11-16T03:18:40.789Z,8.40
2022-11-16T03:21:16.181Z,8.40
2022-11-16T03:23:46.697Z,8.40
2022-11-16T03:26:19.722Z,8.40
2022-11-16T03:28:56.306Z,8.50
2022-11-16T03:31:30.198Z,8.50
2022-11-16T03:34:02.003Z,8.40
2022-11-16T03:36:33.194Z,8.40
2022-11-16T03:39:05.324Z,8.40
2022-11-16T03:41:36.802Z,8.40
2022-11-16T03:44:05.883Z,8.40
2022-11-16T03:46:35.403Z,8.40
2022-11-16T03:49:03.629Z,8.40
2022-11-16T03:51:36.869Z,8.40
2022-11-16T03:54:06.014Z,8.40
2022-11-16T03:56:35.482Z,8.30
2022-11-16T03:59:04.362Z,8.30
2022-11-16T04:01:32.745Z,8.30
2022-11-16T04:04:02.946Z,8.30
2022-11-16T04:06:48.386Z,8.30
2022-11-16T04:09:33.870Z,8.30
2022-11-16T04:12:19.381Z,8.30
2022-11-16T04:15:05.733Z,8.30
2022-11-16T04:17:53.531Z,8.30
2022-11-16T04:20:40.116Z,8.30
2022-11-16T04:23:29.580Z,8.30
2022-11-16T04:25:58.036Z,8.30
2022-11-16T04:28:28.723Z,8.30
2022-11-16T04:31:20.590Z,8.30
2022-11-16T04:34:28.186Z,8.30
2022-11-16T04:37:18.041Z,8.30
2022-11-16T04:39:46.304Z,8.30
2022-11-16T04:42:16.192Z,8.30
2022-11-16T04:45:04.662Z,8.30
2022-11-16T04:47:49.037Z,8.30
2022-11-16T04:50:17.741Z,8.20
2022-11-16T04:52:47.063Z,8.20
2022-11-16T04:55:16.501Z,8.30
2022-11-16T04:57:46.607Z,8.30
2022-11-16T05:00:16.216Z,8.30
2022-11-16T05:02:45.112Z,8.30
2022-11-16T05:05:13.693Z,8.30
2022-11-16T05:07:44.431Z,8.30
2022-11-16T05:10:20.838Z,8.30
2022-11-16T05:12:50.771Z,8.30
2022-11-16T05:15:19.810Z,8.30
2022-11-16T05:17:49.006Z,8.30
2022-11-16T05:20:38.484Z,8.30
2022-11-16T05:23:28.555Z,8.30
2022-11-16T05:26:00.204Z,8.30
2022-11-16T05:28:28.976Z,8.30
2022-11-16T05:30:57.011Z,8.30
2022-11-16T05:33:27.186Z,8.30
2022-11-16T05:35:55.256Z,8.30
2022-11-16T05:38:23.941Z,8.30
2022-11-16T05:40:56.236Z,8.30
2022-11-16T05:43:25.541Z,8.30
2022-11-16T05:46:01.884Z,8.30
2022-11-16T05:48:29.861Z,8.30
2022-11-16T05:50:59.612Z,8.30
2022-11-16T05:53:29.667Z,8.30
2022-11-16T05:55:59.358Z,8.30
2022-11-16T05:58:28.993Z,8.30
2022-11-16T06:00:59.512Z,8.30
2022-11-16T06:03:29.382Z,8.30
2022-11-16T06:05:58.187Z,8.30
2022-11-16T06:08:28.345Z,8.30
2022-11-16T06:11:01.723Z,8.30
2022-11-16T06:13:36.328Z,8.30
2022-11-16T06:16:15.735Z,8.30
2022-11-16T06:18:46.277Z,8.30
2022-11-16T06:21:22.486Z,8.30
2022-11-16T06:23:50.501Z,8.30
2022-11-16T06:26:18.968Z,8.30
2022-11-16T06:28:49.372Z,8.30
2022-11-16T06:31:18.422Z,8.30
2022-11-16T06:33:47.261Z,8.30
2022-11-16T06:36:22.971Z,8.30
2022-11-16T06:38:51.826Z,8.30
2022-11-16T06:41:21.459Z,8.30
2022-11-16T06:43:52.568Z,8.40
2022-11-16T06:46:24.558Z,8.40
2022-11-16T06:48:53.336Z,8.40
2022-11-16T06:51:21.283Z,8.40
2022-11-16T06:53:49.332Z,8.40
2022-11-16T06:56:17.570Z,8.40
2022-11-16T06:58:53.742Z,8.40
2022-11-16T07:01:24.103Z,8.40
2022-11-16T07:03:57.850Z,8.50
2022-11-16T07:06:25.844Z,8.50
2022-11-16T07:08:53.835Z,8.50
2022-11-16T07:11:26.004Z,8.50
2022-11-16T07:13:55.575Z,8.50
2022-11-16T07:16:23.877Z,8.60
2022-11-16T07:18:58.980Z,8.60
2022-11-16T07:21:29.983Z,8.60
2022-11-16T07:24:00.039Z,8.60
2022-11-16T07:26:28.866Z,8.60
2022-11-16T07:29:03.689Z,8.60
2022-11-16T07:31:33.657Z,8.60
2022-11-16T07:34:24.900Z,8.60
2022-11-16T07:37:03.947Z,8.60
2022-11-16T07:39:31.915Z,8.70
2022-11-16T07:42:00.114Z,8.70
2022-11-16T07:44:45.737Z,8.80
2022-11-16T07:47:14.891Z,8.90
2022-11-16T07:49:42.998Z,8.90
2022-11-16T07:52:22.289Z,8.90
2022-11-16T07:54:58.640Z,9.00
2022-11-16T07:57:28.916Z,9.10
2022-11-16T08:00:01.827Z,9.10
2022-11-16T08:02:41.423Z,9.10
2022-11-16T08:05:13.588Z,9.20
2022-11-16T08:07:41.936Z,9.30
2022-11-16T08:10:10.796Z,9.30
2022-11-16T08:12:38.939Z,9.30
2022-11-16T08:15:10.172Z,9.40
2022-11-16T08:17:39.160Z,9.40
2022-11-16T08:20:10.519Z,9.40
2022-11-16T08:22:38.682Z,9.40
2022-11-16T08:25:08.609Z,9.50
2022-11-16T08:27:36.779Z,9.50
2022-11-16T08:30:09.756Z,9.50
2022-11-16T08:32:42.154Z,9.60
2022-11-16T08:35:11.621Z,9.60
2022-11-16T08:37:39.829Z,9.70
2022-11-16T08:40:09.743Z,9.70
2022-11-16T08:42:43.611Z,9.80
2022-11-16T08:45:12.946Z,9.80
2022-11-16T08:47:43.568Z,9.80
2022-11-16T08:50:12.035Z,9.80
2022-11-16T08:52:40.406Z,9.80
2022-11-16T08:55:10.269Z,9.80
2022-11-16T08:57:39.004Z,9.70
2022-11-16T09:00:12.253Z,9.70
2022-11-16T09:02:40.332Z,9.70
2022-11-16T09:05:12.040Z,9.70
2022-11-16T09:07:40.722Z,9.70
2022-11-16T09:10:09.652Z,9.70
2022-11-16T09:12:38.527Z,9.70
2022-11-16T09:15:07.997Z,9.70
2022-11-16T09:17:35.975Z,9.70
2022-11-16T09:20:04.822Z,9.70
2022-11-16T09:22:34.268Z,9.70
2022-11-16T09:25:02.309Z,9.70
2022-11-16T09:27:30.200Z,9.70
2022-11-16T09:29:58.203Z,9.70
2022-11-16T09:32:27.182Z,9.70
2022-11-16T09:34:55.188Z,9.70
2022-11-16T09:37:23.295Z,9.80
2022-11-16T09:39:52.542Z,9.80
2022-11-16T09:42:35.833Z,9.80
2022-11-16T09:45:06.361Z,9.90
2022-11-16T09:47:50.010Z,9.80
2022-11-16T09:50:28.856Z,9.80
2022-11-16T09:53:01.015Z,9.90
2022-11-16T09:55:36.855Z,9.90
2022-11-16T09:58:13.792Z,9.80
2022-11-16T10:00:44.934Z,9.90
2022-11-16T10:03:15.776Z,10.00
2022-11-16T10:05:48.957Z,10.00
2022-11-16T10:08:23.756Z,10.10
2022-11-16T10:11:07.766Z,10.10
2022-11-16T10:13:47.037Z,10.00
2022-11-16T10:16:22.872Z,10.00
2022-11-16T10:18:58.283Z,10.00
2022-11-16T10:21:42.602Z,10.00
2022-11-16T10:24:33.433Z,10.00
2022-11-16T10:27:22.180Z,10.00
2022-11-16T10:30:00.487Z,10.10
2022-11-16T10:32:31.023Z,10.00
2022-11-16T10:35:05.237Z,10.00
2022-11-16T10:37:36.816Z,10.00
2022-11-16T10:40:20.159Z,10.10
2022-11-16T10:42:58.490Z,10.10
2022-11-16T10:45:34.096Z,10.10
2022-11-16T10:48:12.408Z,10.10
2022-11-16T10:50:44.862Z,10.20
2022-11-16T10:53:15.125Z,10.20
2022-11-16T10:55:43.212Z,10.10
2022-11-16T10:58:12.451Z,10.20
2022-11-16T11:00:45.463Z,10.20
2022-11-16T11:03:13.547Z,10.20
2022-11-16T11:05:53.324Z,10.30
2022-11-16T11:08:31.404Z,10.30
2022-11-16T11:11:22.501Z,10.30
2022-11-16T11:14:06.232Z,10.30
2022-11-16T11:16:34.111Z,10.30
2022-11-16T11:19:20.767Z,10.30
2022-11-16T11:21:49.803Z,10.30
2022-11-16T11:24:43.438Z,10.30
2022-11-16T11:27:06.850Z,10.30
2022-11-16T11:29:38.575Z,10.30
2022-11-16T11:32:08.955Z,10.30
2022-11-16T11:34:44.535Z,10.30
2022-11-16T11:37:17.227Z,10.30
2022-11-16T11:39:45.736Z,10.30
2022-11-16T11:42:24.712Z,10.30
2022-11-16T11:45:00.157Z,10.30
2022-11-16T11:48:02.731Z,10.30
2022-11-16T11:50:45.275Z,10.30
2022-11-16T11:53:21.815Z,10.20
2022-11-16T11:55:56.079Z,10.20
2022-11-16T11:58:30.660Z,10.20
2022-11-16T12:01:18.402Z,10.20
2022-11-16T12:04:29.342Z,10.10
2022-11-16T12:07:03.235Z,10.10
2022-11-16T12:09:38.255Z,10.10
2022-11-16T12:12:19.580Z,10.00
2022-11-16T12:15:01.645Z,10.00
2022-11-16T12:17:39.589Z,10.00
2022-11-16T12:20:19.156Z,9.90
2022-11-16T12:23:08.309Z,9.90
2022-11-16T12:25:46.432Z,9.80
2022-11-16T12:28:25.343Z,9.80
2022-11-16T12:31:18.999Z,9.80
2022-11-16T12:33:54.082Z,9.80
2022-11-16T12:36:31.771Z,9.80
2022-11-16T12:39:12.728Z,9.80
2022-11-16T12:41:58.553Z,9.80
2022-11-16T12:44:51.747Z,9.80
2022-11-16T12:47:31.544Z,9.80
2022-11-16T12:50:09.439Z,9.90
2022-11-16T12:53:07.508Z,9.90
2022-11-16T12:55:46.572Z,9.90
2022-11-16T12:58:21.350Z,9.90
2022-11-16T13:01:03.902Z,10.00
2022-11-16T13:03:39.573Z,10.00
2022-11-16T13:06:14.725Z,10.00
2022-11-16T13:08:50.296Z,10.00
2022-11-16T13:11:23.417Z,10.00
2022-11-16T13:13:54.239Z,10.00
2022-11-16T13:16:23.969Z,9.90
2022-11-16T13:18:53.268Z,10.00
2022-11-16T13:21:43.210Z,10.00
2022-11-16T13:24:26.034Z,10.00
2022-11-16T13:27:13.256Z,10.00
2022-11-16T13:29:47.163Z,10.00
2022-11-16T13:32:21.149Z,10.00
2022-11-16T13:34:50.673Z,10.00
2022-11-16T13:37:48.358Z,10.00
2022-11-16T13:40:30.815Z,9.90
2022-11-16T13:43:18.147Z,9.90
2022-11-16T13:45:55.462Z,9.90
2022-11-16T13:48:26.573Z,9.80
2022-11-16T13:50:57.036Z,9.90
2022-11-16T13:56:21.814Z,9.90
2022-11-16T13:58:55.633Z,10.00
2022-11-16T14:01:23.770Z,10.00
2022-11-16T14:03:53.514Z,10.00
2022-11-16T14:07:00.183Z,10.00
2022-11-16T14:09:49.354Z,10.00
2022-11-16T14:12:59.790Z,10.10
2022-11-16T14:15:33.050Z,10.10
2022-11-16T14:18:03.866Z,10.10
2022-11-16T14:20:46.887Z,10.20
2022-11-16T14:23:30.033Z,10.20
2022-11-16T14:26:12.004Z,10.20
2022-11-16T14:28:52.181Z,10.20
2022-11-16T14:31:25.233Z,10.20
2022-11-16T14:33:55.642Z,10.30
2022-11-16T14:36:39.803Z,10.30
2022-11-16T14:39:38.444Z,10.30
2022-11-16T14:42:16.801Z,10.30
2022-11-16T14:44:45.274Z,10.20
2022-11-16T14:47:24.075Z,10.20
2022-11-16T14:49:52.662Z,10.20
2022-11-16T14:52:28.193Z,10.20
2022-11-16T14:55:00.104Z,10.20
2022-11-16T14:57:29.633Z,10.10
2022-11-16T15:00:13.001Z,10.10
2022-11-16T15:02:41.737Z,10.00
2022-11-16T15:05:17.799Z,10.00
2022-11-16T15:07:47.587Z,9.90
2022-11-16T15:10:18.993Z,9.90
2022-11-16T15:12:52.296Z,9.90
2022-11-16T15:15:23.819Z,9.90
2022-11-16T15:18:07.083Z,9.80
2022-11-16T15:20:37.285Z,9.80
2022-11-16T15:23:13.272Z,9.80
2022-11-16T15:25:44.044Z,9.80
2022-11-16T15:28:18.759Z,9.80
2022-11-16T15:30:49.716Z,9.70
2022-11-16T15:33:21.485Z,9.70
2022-11-16T15:35:49.472Z,9.70
2022-11-16T15:38:20.952Z,9.60
2022-11-16T15:40:52.617Z,9.60
2022-11-16T15:43:24.455Z,9.50
2022-11-16T15:45:53.244Z,9.50
2022-11-16T15:48:23.297Z,9.40
2022-11-16T15:51:04.222Z,9.40
2022-11-16T15:53:38.236Z,9.30
2022-11-16T15:56:09.675Z,9.30
2022-11-16T15:58:40.770Z,9.30
2022-11-16T16:01:09.702Z,9.30
2022-11-16T16:03:39.503Z,9.30
2022-11-16T16:06:12.812Z,9.30
2022-11-16T16:08:41.771Z,9.30
2022-11-16T16:11:11.796Z,9.30
2022-11-16T16:13:44.160Z,9.30
2022-11-16T16:16:28.868Z,9.30
2022-11-16T16:19:03.687Z,9.30
2022-11-16T16:21:45.940Z,9.20
2022-11-16T16:24:36.653Z,9.20
2022-11-16T16:27:13.883Z,9.20
2022-11-16T16:29:43.452Z,9.20
2022-11-16T16:32:15.181Z,9.20
2022-11-16T16:34:43.156Z,9.20
2022-11-16T16:37:16.525Z,9.10
2022-11-16T16:39:44.436Z,9.10
2022-11-16T16:42:14.297Z,9.10
2022-11-16T16:44:44.626Z,9.10
2022-11-16T16:47:13.445Z,9.10
2022-11-16T16:49:41.894Z,9.10
2022-11-16T16:52:13.418Z,9.10
2022-11-16T16:54:42.807Z,9.00
2022-11-16T16:57:15.041Z,9.00
2022-11-16T16:59:45.208Z,9.00
2022-11-16T17:02:13.938Z,8.90
2022-11-16T17:04:43.897Z,9.00
2022-11-16T17:07:11.922Z,8.90
2022-11-16T17:09:39.909Z,9.00
2022-11-16T17:12:07.919Z,9.00
2022-11-16T17:14:35.874Z,9.00
2022-11-16T17:17:05.197Z,9.00
2022-11-16T17:19:33.211Z,9.00
2022-11-16T17:22:01.291Z,9.00
2022-11-16T17:24:29.340Z,9.00
2022-11-16T17:26:57.236Z,9.00
2022-11-16T17:29:25.227Z,9.00
2022-11-16T17:31:53.193Z,9.00
2022-11-16T17:34:22.657Z,9.00
2022-11-16T17:36:50.600Z,9.00
2022-11-16T17:39:19.206Z,8.90
2022-11-16T17:41:47.230Z,9.00
2022-11-16T17:44:21.276Z,8.90
2022-11-16T17:46:49.719Z,9.00
2022-11-16T17:49:17.771Z,9.00
2022-11-16T17:51:47.259Z,8.90
2022-11-16T17:54:15.205Z,8.90
2022-11-16T17:56:43.265Z,8.90
2022-11-16T17:59:11.263Z,8.90
2022-11-16T18:01:39.352Z,8.90
2022-11-16T18:04:07.449Z,8.90
2022-11-16T18:06:35.604Z,8.90
2022-11-16T18:09:05.051Z,8.90
2022-11-16T18:11:33.033Z,8.90
2022-11-16T18:14:02.094Z,8.90
2022-11-16T18:16:32.559Z,8.90
2022-11-16T18:19:02.316Z,8.90
2022-11-16T18:21:30.772Z,8.90
2022-11-16T18:24:00.610Z,8.90
2022-11-16T18:26:29.862Z,8.90
2022-11-16T18:28:57.812Z,8.80
2022-11-16T18:31:26.449Z,8.90
2022-11-16T18:33:54.514Z,8.90
2022-11-16T18:36:23.246Z,8.90
2022-11-16T18:38:51.562Z,8.90
2022-11-16T18:41:21.556Z,8.90
2022-11-16T18:43:52.548Z,8.90
2022-11-16T18:46:20.797Z,8.90
2022-11-16T18:48:48.845Z,8.90
2022-11-16T18:51:17.911Z,8.90
2022-11-16T18:53:46.554Z,8.90
2022-11-16T18:56:14.763Z,8.90
2022-11-16T18:58:50.439Z,9.00
2022-11-16T19:01:23.310Z,8.90
2022-11-16T19:03:52.054Z,9.00
2022-11-16T19:06:20.449Z,9.00
2022-11-16T19:08:55.241Z,9.00
2022-11-16T19:11:24.750Z,9.00
2022-11-16T19:13:54.634Z,8.90
2022-11-16T19:16:24.971Z,9.00
2022-11-16T19:18:53.178Z,9.00
2022-11-16T19:21:22.801Z,9.00
2022-11-16T19:23:52.555Z,8.90
2022-11-16T19:26:23.447Z,8.90
2022-11-16T19:28:52.449Z,8.80
2022-11-16T19:31:23.613Z,8.80
2022-11-16T19:33:55.425Z,8.90
2022-11-16T19:36:23.725Z,8.90
2022-11-16T19:38:51.888Z,8.90
2022-11-16T19:41:22.234Z,8.90
2022-11-16T19:43:52.352Z,8.90
2022-11-16T19:46:21.309Z,8.90
2022-11-16T19:48:50.902Z,8.90
2022-11-16T19:51:20.461Z,8.90
2022-11-16T19:53:48.980Z,8.90
2022-11-16T19:56:19.448Z,8.90
2022-11-16T19:58:49.837Z,8.80
2022-11-16T20:01:19.578Z,8.80
2022-11-16T20:03:48.864Z,8.80
2022-11-16T20:06:19.789Z,8.80
2022-11-16T20:08:49.612Z,8.80
2022-11-16T20:11:20.372Z,8.80
2022-11-16T20:13:48.744Z,8.80
2022-11-16T20:16:18.048Z,8.80
2022-11-16T20:18:46.726Z,8.70
2022-11-16T20:21:20.281Z,8.70
2022-11-16T20:23:48.248Z,8.70
2022-11-16T20:26:16.385Z,8.70
2022-11-16T20:28:44.828Z,8.70
2022-11-16T20:31:14.653Z,8.70
2022-11-16T20:33:43.204Z,8.70
2022-11-16T20:36:12.636Z,8.70
2022-11-16T20:38:41.880Z,8.60
2022-11-16T20:41:11.769Z,8.60
2022-11-16T20:43:40.329Z,8.60
2022-11-16T20:46:08.952Z,8.60
2022-11-16T20:48:37.319Z,8.60
2022-11-16T20:51:05.834Z,8.60
2022-11-16T20:53:34.182Z,8.60
2022-11-16T20:56:04.173Z,8.50
2022-11-16T20:58:33.320Z,8.50
2022-11-16T21:01:01.899Z,8.50
2022-11-16T21:03:29.938Z,8.50
2022-11-16T21:05:57.897Z,8.50
2022-11-16T21:08:26.886Z,8.50
2022-11-16T21:10:55.054Z,8.50
2022-11-16T21:13:42.507Z,8.50
2022-11-16T21:16:12.131Z,8.60
2022-11-16T21:18:40.708Z,8.60
2022-11-16T21:21:11.303Z,8.60
2022-11-16T21:23:41.086Z,8.50
2022-11-16T21:26:12.247Z,8.50
2022-11-16T21:31:30.799Z,8.50
2022-11-16T21:34:00.497Z,8.50
2022-11-16T21:36:30.250Z,8.40
2022-11-16T21:38:59.061Z,8.40
2022-11-16T21:41:27.966Z,8.40
2022-11-16T21:43:57.353Z,8.50
2022-11-16T21:46:27.045Z,8.50
2022-11-16T21:48:56.598Z,8.50
2022-11-16T21:51:26.729Z,8.50
2022-11-16T21:53:54.926Z,8.40
2022-11-16T21:56:24.584Z,8.40
2022-11-16T21:58:53.686Z,8.40
2022-11-16T22:01:23.911Z,8.40
2022-11-16T22:04:06.142Z,8.40
2022-11-16T22:06:51.589Z,8.30
2022-11-16T22:09:19.557Z,8.30
2022-11-16T22:11:47.488Z,8.40
2022-11-16T22:14:15.500Z,8.40
2022-11-16T22:16:45.118Z,8.40
2022-11-16T22:19:13.130Z,8.40
2022-11-16T22:21:41.060Z,8.30
2022-11-16T22:24:09.541Z,8.30
2022-11-16T22:26:38.133Z,8.30
2022-11-16T22:29:06.156Z,8.30
2022-11-16T22:31:36.049Z,8.30
2022-11-16T22:34:05.531Z,8.30
2022-11-16T22:36:33.446Z,8.30
2022-11-16T22:39:01.988Z,8.30
2022-11-16T22:41:29.959Z,8.40
2022-11-16T22:43:57.984Z,8.40
2022-11-16T22:46:25.893Z,8.40
2022-11-16T22:48:53.873Z,8.40
2022-11-16T22:51:25.096Z,8.50
2022-11-16T22:53:54.281Z,8.50
2022-11-16T22:56:22.619Z,8.50
2022-11-16T22:58:50.793Z,8.50
2022-11-16T23:01:19.351Z,8.50
2022-11-16T23:03:47.820Z,8.60
2022-11-16T23:06:16.384Z,8.50
2022-11-16T23:08:45.888Z,8.60
2022-11-16T23:11:32.858Z,8.60
2022-11-16T23:14:19.289Z,8.60
2022-11-16T23:16:47.427Z,8.60
2022-11-16T23:19:34.739Z,8.60
2022-11-16T23:22:16.927Z,8.60
2022-11-16T23:25:04.303Z,8.50
2022-11-16T23:27:40.469Z,8.40
2022-11-16T23:30:13.590Z,8.40
2022-11-16T23:32:42.442Z,8.40
2022-11-16T23:35:11.359Z,8.30
2022-11-16T23:37:51.601Z,8.30
2022-11-16T23:40:21.544Z,8.20
2022-11-16T23:43:07.916Z,8.20
2022-11-16T23:45:36.173Z,8.20
2022-11-16T23:48:04.904Z,8.20
2022-11-16T23:50:32.896Z,8.20
2022-11-16T23:53:00.853Z,8.10
2022-11-16T23:55:30.248Z,8.10
2022-11-16T23:57:58.290Z,8.00
